sensor_id;sensor_type;location;lat;lon;timestamp;temperature;humidity
6822;DHT22;3449;48.728;8.968;2023-03-11T00:01:04;1.00;99.90
6822;DHT22;3449;48.728;8.968;2023-03-11T00:03:31;1.00;99.90
6822;DHT22;3449;48.728;8.968;2023-03-11T00:06:00;0.90;99.90
6822;DHT22;3449;48.728;8.968;2023-03-11T00:08:27;1.00;99.90
6822;DHT22;3449;48.728;8.968;2023-03-11T00:10:56;0.90;99.90
6822;DHT22;3449;48.728;8.968;2023-03-11T00:13:25;0.90;99.90
6822;DHT22;3449;48.728;8.968;2023-03-11T00:15:54;1.00;99.90
6822;DHT22;3449;48.728;8.968;2023-03-11T00:18:22;1.00;99.90
6822;DHT22;3449;48.728;8.968;2023-03-11T00:20:52;1.10;99.90
6822;DHT22;3449;48.728;8.968;2023-03-11T00:23:19;1.00;99.90
6822;DHT22;3449;48.728;8.968;2023-03-11T00:25:46;1.00;99.90
6822;DHT22;3449;48.728;8.968;2023-03-11T00:28:13;1.00;99.90
6822;DHT22;3449;48.728;8.968;2023-03-11T00:30:43;1.00;99.90
6822;DHT22;3449;48.728;8.968;2023-03-11T00:33:13;1.10;99.90
6822;DHT22;3449;48.728;8.968;2023-03-11T00:35:41;1.10;99.90
6822;DHT22;3449;48.728;8.968;2023-03-11T00:38:11;1.10;99.90
6822;DHT22;3449;48.728;8.968;2023-03-11T00:40:39;1.10;99.90
6822;DHT22;3449;48.728;8.968;2023-03-11T00:43:06;1.20;99.90
6822;DHT22;3449;48.728;8.968;2023-03-11T00:45:33;1.20;99.90
6822;DHT22;3449;48.728;8.968;2023-03-11T00:48:00;1.20;99.90
6822;DHT22;3449;48.728;8.968;2023-03-11T00:50:30;1.20;99.90
6822;DHT22;3449;48.728;8.968;2023-03-11T00:52:58;1.20;99.90
6822;DHT22;3449;48.728;8.968;2023-03-11T00:55:27;1.20;99.90
6822;DHT22;3449;48.728;8.968;2023-03-11T00:57:55;1.20;99.90
6822;DHT22;3449;48.728;8.968;2023-03-11T01:00:24;1.20;99.90
6822;DHT22;3449;48.728;8.968;2023-03-11T01:02:52;1.10;99.90
6822;DHT22;3449;48.728;8.968;2023-03-11T01:05:21;1.10;99.90
6822;DHT22;3449;48.728;8.968;2023-03-11T01:07:49;1.10;99.90
6822;DHT22;3449;48.728;8.968;2023-03-11T01:10:16;1.10;99.90
6822;DHT22;3449;48.728;8.968;2023-03-11T01:12:43;1.10;99.90
6822;DHT22;3449;48.728;8.968;2023-03-11T01:15:17;1.10;99.90
6822;DHT22;3449;48.728;8.968;2023-03-11T01:17:44;1.10;99.90
6822;DHT22;3449;48.728;8.968;2023-03-11T01:20:12;1.00;99.90
6822;DHT22;3449;48.728;8.968;2023-03-11T01:22:39;1.00;99.90
6822;DHT22;3449;48.728;8.968;2023-03-11T01:25:10;1.00;99.90
6822;DHT22;3449;48.728;8.968;2023-03-11T01:27:38;0.90;99.90
6822;DHT22;3449;48.728;8.968;2023-03-11T01:30:06;0.90;99.90
6822;DHT22;3449;48.728;8.968;2023-03-11T01:32:33;0.80;99.90
6822;DHT22;3449;48.728;8.968;2023-03-11T01:35:00;0.80;99.90
6822;DHT22;3449;48.728;8.968;2023-03-11T01:37:27;0.80;99.90
6822;DHT22;3449;48.728;8.968;2023-03-11T01:39:54;0.80;99.90
6822;DHT22;3449;48.728;8.968;2023-03-11T01:42:22;0.70;99.90
6822;DHT22;3449;48.728;8.968;2023-03-11T01:44:49;0.70;99.90
6822;DHT22;3449;48.728;8.968;2023-03-11T01:47:36;0.70;99.90
6822;DHT22;3449;48.728;8.968;2023-03-11T01:50:07;0.60;99.90
6822;DHT22;3449;48.728;8.968;2023-03-11T01:52:35;0.60;99.90
6822;DHT22;3449;48.728;8.968;2023-03-11T01:55:02;0.70;99.90
6822;DHT22;3449;48.728;8.968;2023-03-11T01:57:31;0.60;99.90
6822;DHT22;3449;48.728;8.968;2023-03-11T02:00:02;0.60;99.90
6822;DHT22;3449;48.728;8.968;2023-03-11T02:02:35;0.60;99.90
6822;DHT22;3449;48.728;8.968;2023-03-11T02:05:03;0.60;99.90
6822;DHT22;3449;48.728;8.968;2023-03-11T02:07:30;0.60;99.90
6822;DHT22;3449;48.728;8.968;2023-03-11T02:09:57;0.50;99.90
6822;DHT22;3449;48.728;8.968;2023-03-11T02:12:24;0.50;99.90
6822;DHT22;3449;48.728;8.968;2023-03-11T02:14:55;0.50;99.90
6822;DHT22;3449;48.728;8.968;2023-03-11T02:17:23;0.50;99.90
6822;DHT22;3449;48.728;8.968;2023-03-11T02:20:08;0.50;99.90
6822;DHT22;3449;48.728;8.968;2023-03-11T02:22:39;0.40;99.90
6822;DHT22;3449;48.728;8.968;2023-03-11T02:25:12;0.40;99.90
6822;DHT22;3449;48.728;8.968;2023-03-11T02:27:42;0.40;99.90
6822;DHT22;3449;48.728;8.968;2023-03-11T02:30:12;0.30;99.90
6822;DHT22;3449;48.728;8.968;2023-03-11T02:32:42;0.30;99.90
6822;DHT22;3449;48.728;8.968;2023-03-11T02:35:11;0.30;99.90
6822;DHT22;3449;48.728;8.968;2023-03-11T02:37:43;0.30;99.90
6822;DHT22;3449;48.728;8.968;2023-03-11T02:40:36;0.30;99.90
6822;DHT22;3449;48.728;8.968;2023-03-11T02:43:08;0.30;99.90
6822;DHT22;3449;48.728;8.968;2023-03-11T02:45:37;0.20;99.90
6822;DHT22;3449;48.728;8.968;2023-03-11T02:48:06;0.20;99.90
6822;DHT22;3449;48.728;8.968;2023-03-11T02:50:34;0.10;99.90
6822;DHT22;3449;48.728;8.968;2023-03-11T02:53:03;0.10;99.90
6822;DHT22;3449;48.728;8.968;2023-03-11T02:55:30;0.00;99.90
6822;DHT22;3449;48.728;8.968;2023-03-11T02:57:57;0.00;99.90
6822;DHT22;3449;48.728;8.968;2023-03-11T03:00:25;-0.10;99.90
6822;DHT22;3449;48.728;8.968;2023-03-11T03:02:52;-0.10;99.90
6822;DHT22;3449;48.728;8.968;2023-03-11T03:05:20;-0.10;99.90
6822;DHT22;3449;48.728;8.968;2023-03-11T03:07:48;-0.20;99.90
6822;DHT22;3449;48.728;8.968;2023-03-11T03:10:16;-0.20;99.90
6822;DHT22;3449;48.728;8.968;2023-03-11T03:12:44;-0.20;99.90
6822;DHT22;3449;48.728;8.968;2023-03-11T03:15:11;-0.20;99.90
6822;DHT22;3449;48.728;8.968;2023-03-11T03:17:42;-0.20;99.90
6822;DHT22;3449;48.728;8.968;2023-03-11T03:20:10;-0.30;99.90
6822;DHT22;3449;48.728;8.968;2023-03-11T03:22:39;-0.40;99.90
6822;DHT22;3449;48.728;8.968;2023-03-11T03:25:07;-0.40;99.90
6822;DHT22;3449;48.728;8.968;2023-03-11T03:27:34;-0.50;99.90
6822;DHT22;3449;48.728;8.968;2023-03-11T03:30:02;-0.50;99.90
6822;DHT22;3449;48.728;8.968;2023-03-11T03:32:29;-0.60;99.90
6822;DHT22;3449;48.728;8.968;2023-03-11T03:34:58;-0.60;99.90
6822;DHT22;3449;48.728;8.968;2023-03-11T03:37:25;-0.70;99.90
6822;DHT22;3449;48.728;8.968;2023-03-11T03:39:52;-0.60;99.90
6822;DHT22;3449;48.728;8.968;2023-03-11T03:42:20;-0.70;99.90
6822;DHT22;3449;48.728;8.968;2023-03-11T03:44:49;-0.70;99.90
6822;DHT22;3449;48.728;8.968;2023-03-11T03:47:16;-0.80;99.90
6822;DHT22;3449;48.728;8.968;2023-03-11T03:49:43;-0.80;99.90
6822;DHT22;3449;48.728;8.968;2023-03-11T03:52:12;-0.80;99.90
6822;DHT22;3449;48.728;8.968;2023-03-11T03:54:39;-0.80;99.90
6822;DHT22;3449;48.728;8.968;2023-03-11T03:57:06;-0.90;99.90
6822;DHT22;3449;48.728;8.968;2023-03-11T03:59:33;-0.90;99.90
6822;DHT22;3449;48.728;8.968;2023-03-11T04:02:00;-0.90;99.90
6822;DHT22;3449;48.728;8.968;2023-03-11T04:04:27;-0.90;99.90
6822;DHT22;3449;48.728;8.968;2023-03-11T04:06:54;-0.80;99.90
6822;DHT22;3449;48.728;8.968;2023-03-11T04:09:22;-0.90;99.90
6822;DHT22;3449;48.728;8.968;2023-03-11T04:11:49;-1.00;99.90
6822;DHT22;3449;48.728;8.968;2023-03-11T04:14:16;-1.00;99.90
6822;DHT22;3449;48.728;8.968;2023-03-11T04:16:43;-1.00;99.90
6822;DHT22;3449;48.728;8.968;2023-03-11T04:19:09;-0.90;99.90
6822;DHT22;3449;48.728;8.968;2023-03-11T04:21:37;-1.00;99.90
6822;DHT22;3449;48.728;8.968;2023-03-11T04:24:04;-1.10;99.90
6822;DHT22;3449;48.728;8.968;2023-03-11T04:26:32;-1.10;99.90
6822;DHT22;3449;48.728;8.968;2023-03-11T04:28:59;-1.10;99.90
6822;DHT22;3449;48.728;8.968;2023-03-11T04:31:26;-1.10;99.90
6822;DHT22;3449;48.728;8.968;2023-03-11T04:33:53;-1.10;99.90
6822;DHT22;3449;48.728;8.968;2023-03-11T04:36:20;-1.20;99.90
6822;DHT22;3449;48.728;8.968;2023-03-11T04:38:47;-1.20;99.90
6822;DHT22;3449;48.728;8.968;2023-03-11T04:41:13;-1.20;99.90
6822;DHT22;3449;48.728;8.968;2023-03-11T04:43:42;-1.20;99.90
6822;DHT22;3449;48.728;8.968;2023-03-11T04:46:09;-1.30;99.90
6822;DHT22;3449;48.728;8.968;2023-03-11T04:48:36;-1.30;99.90
6822;DHT22;3449;48.728;8.968;2023-03-11T04:51:03;-1.30;99.90
6822;DHT22;3449;48.728;8.968;2023-03-11T04:53:30;-1.30;99.90
6822;DHT22;3449;48.728;8.968;2023-03-11T04:55:57;-1.30;99.90
6822;DHT22;3449;48.728;8.968;2023-03-11T04:58:24;-1.30;99.90
6822;DHT22;3449;48.728;8.968;2023-03-11T05:00:52;-1.30;99.90
6822;DHT22;3449;48.728;8.968;2023-03-11T05:03:20;-1.40;99.90
6822;DHT22;3449;48.728;8.968;2023-03-11T05:05:47;-1.40;99.90
6822;DHT22;3449;48.728;8.968;2023-03-11T05:08:14;-1.40;99.90
6822;DHT22;3449;48.728;8.968;2023-03-11T05:10:41;-1.40;99.90
6822;DHT22;3449;48.728;8.968;2023-03-11T05:13:09;-1.40;99.90
6822;DHT22;3449;48.728;8.968;2023-03-11T05:15:35;-1.40;99.90
6822;DHT22;3449;48.728;8.968;2023-03-11T05:18:04;-1.40;99.90
6822;DHT22;3449;48.728;8.968;2023-03-11T05:20:31;-1.40;99.90
6822;DHT22;3449;48.728;8.968;2023-03-11T05:22:58;-1.50;99.90
6822;DHT22;3449;48.728;8.968;2023-03-11T05:25:24;-1.50;99.90
6822;DHT22;3449;48.728;8.968;2023-03-11T05:27:51;-1.50;99.90
6822;DHT22;3449;48.728;8.968;2023-03-11T05:30:18;-1.50;99.90
6822;DHT22;3449;48.728;8.968;2023-03-11T05:32:45;-1.50;99.90
6822;DHT22;3449;48.728;8.968;2023-03-11T05:35:14;-1.50;99.90
6822;DHT22;3449;48.728;8.968;2023-03-11T05:37:41;-1.40;99.90
6822;DHT22;3449;48.728;8.968;2023-03-11T05:40:10;-1.50;99.90
6822;DHT22;3449;48.728;8.968;2023-03-11T05:42:37;-1.50;99.90
6822;DHT22;3449;48.728;8.968;2023-03-11T05:45:06;-1.50;99.90
6822;DHT22;3449;48.728;8.968;2023-03-11T05:47:33;-1.50;99.90
6822;DHT22;3449;48.728;8.968;2023-03-11T05:50:01;-1.50;99.90
6822;DHT22;3449;48.728;8.968;2023-03-11T05:52:29;-1.50;99.90
6822;DHT22;3449;48.728;8.968;2023-03-11T05:54:57;-1.50;99.90
6822;DHT22;3449;48.728;8.968;2023-03-11T05:57:24;-1.50;99.90
6822;DHT22;3449;48.728;8.968;2023-03-11T05:59:51;-1.50;99.90
6822;DHT22;3449;48.728;8.968;2023-03-11T06:02:18;-1.50;99.90
6822;DHT22;3449;48.728;8.968;2023-03-11T06:04:45;-1.50;99.90
6822;DHT22;3449;48.728;8.968;2023-03-11T06:07:12;-1.50;99.90
6822;DHT22;3449;48.728;8.968;2023-03-11T06:09:42;-1.40;99.90
6822;DHT22;3449;48.728;8.968;2023-03-11T06:12:09;-1.40;99.90
6822;DHT22;3449;48.728;8.968;2023-03-11T06:14:35;-1.40;99.90
6822;DHT22;3449;48.728;8.968;2023-03-11T06:17:03;-1.40;99.90
6822;DHT22;3449;48.728;8.968;2023-03-11T06:19:30;-1.40;99.90
6822;DHT22;3449;48.728;8.968;2023-03-11T06:21:57;-1.40;99.90
6822;DHT22;3449;48.728;8.968;2023-03-11T06:24:24;-1.40;99.90
6822;DHT22;3449;48.728;8.968;2023-03-11T06:26:52;-1.30;99.90
6822;DHT22;3449;48.728;8.968;2023-03-11T06:29:19;-1.30;99.90
6822;DHT22;3449;48.728;8.968;2023-03-11T06:31:49;-1.30;99.90
6822;DHT22;3449;48.728;8.968;2023-03-11T06:34:16;-1.30;99.90
6822;DHT22;3449;48.728;8.968;2023-03-11T06:36:43;-1.20;99.90
6822;DHT22;3449;48.728;8.968;2023-03-11T06:39:12;-1.10;99.90
6822;DHT22;3449;48.728;8.968;2023-03-11T06:41:39;-1.00;99.90
6822;DHT22;3449;48.728;8.968;2023-03-11T06:44:08;-0.90;99.90
6822;DHT22;3449;48.728;8.968;2023-03-11T06:46:35;-0.80;99.90
6822;DHT22;3449;48.728;8.968;2023-03-11T06:49:02;-0.60;99.90
6822;DHT22;3449;48.728;8.968;2023-03-11T06:51:29;-0.50;99.90
6822;DHT22;3449;48.728;8.968;2023-03-11T06:53:56;-0.30;99.90
6822;DHT22;3449;48.728;8.968;2023-03-11T06:56:23;-0.10;99.90
6822;DHT22;3449;48.728;8.968;2023-03-11T06:58:50;0.00;99.90
6822;DHT22;3449;48.728;8.968;2023-03-11T07:01:20;0.10;99.90
6822;DHT22;3449;48.728;8.968;2023-03-11T07:03:48;0.10;99.90
6822;DHT22;3449;48.728;8.968;2023-03-11T07:06:17;0.10;99.90
6822;DHT22;3449;48.728;8.968;2023-03-11T07:08:45;0.10;99.90
6822;DHT22;3449;48.728;8.968;2023-03-11T07:11:14;0.20;99.90
6822;DHT22;3449;48.728;8.968;2023-03-11T07:13:42;0.30;99.90
6822;DHT22;3449;48.728;8.968;2023-03-11T07:16:11;0.40;99.90
6822;DHT22;3449;48.728;8.968;2023-03-11T07:18:42;0.60;99.90
6822;DHT22;3449;48.728;8.968;2023-03-11T07:21:10;0.90;99.90
6822;DHT22;3449;48.728;8.968;2023-03-11T07:23:39;1.20;99.90
6822;DHT22;3449;48.728;8.968;2023-03-11T07:26:08;1.30;99.90
6822;DHT22;3449;48.728;8.968;2023-03-11T07:28:36;1.40;99.90
6822;DHT22;3449;48.728;8.968;2023-03-11T07:31:07;1.50;99.90
6822;DHT22;3449;48.728;8.968;2023-03-11T07:33:34;1.70;99.90
6822;DHT22;3449;48.728;8.968;2023-03-11T07:36:06;1.90;99.90
6822;DHT22;3449;48.728;8.968;2023-03-11T07:38:33;2.00;99.90
6822;DHT22;3449;48.728;8.968;2023-03-11T07:41:00;2.00;99.90
6822;DHT22;3449;48.728;8.968;2023-03-11T07:43:27;2.10;99.90
6822;DHT22;3449;48.728;8.968;2023-03-11T07:46:01;2.10;99.90
6822;DHT22;3449;48.728;8.968;2023-03-11T07:48:28;2.10;99.90
6822;DHT22;3449;48.728;8.968;2023-03-11T07:51:00;2.20;99.90
6822;DHT22;3449;48.728;8.968;2023-03-11T07:53:28;2.20;99.90
6822;DHT22;3449;48.728;8.968;2023-03-11T07:55:55;2.40;99.90
6822;DHT22;3449;48.728;8.968;2023-03-11T07:58:22;2.50;99.90
6822;DHT22;3449;48.728;8.968;2023-03-11T08:00:49;2.50;99.90
6822;DHT22;3449;48.728;8.968;2023-03-11T08:03:16;2.70;99.90
6822;DHT22;3449;48.728;8.968;2023-03-11T08:05:43;2.70;99.90
6822;DHT22;3449;48.728;8.968;2023-03-11T08:08:10;2.80;99.90
6822;DHT22;3449;48.728;8.968;2023-03-11T08:10:39;2.80;99.90
6822;DHT22;3449;48.728;8.968;2023-03-11T08:13:06;2.80;99.90
6822;DHT22;3449;48.728;8.968;2023-03-11T08:15:32;3.00;99.90
6822;DHT22;3449;48.728;8.968;2023-03-11T08:17:59;3.10;99.90
6822;DHT22;3449;48.728;8.968;2023-03-11T08:20:26;3.40;99.90
6822;DHT22;3449;48.728;8.968;2023-03-11T08:22:53;3.50;99.90
6822;DHT22;3449;48.728;8.968;2023-03-11T08:25:20;3.60;99.90
6822;DHT22;3449;48.728;8.968;2023-03-11T08:27:48;3.60;99.90
6822;DHT22;3449;48.728;8.968;2023-03-11T08:30:15;3.60;99.90
6822;DHT22;3449;48.728;8.968;2023-03-11T08:32:42;3.80;99.90
6822;DHT22;3449;48.728;8.968;2023-03-11T08:35:09;3.80;99.90
6822;DHT22;3449;48.728;8.968;2023-03-11T08:37:36;3.60;99.90
6822;DHT22;3449;48.728;8.968;2023-03-11T08:40:04;3.70;99.90
6822;DHT22;3449;48.728;8.968;2023-03-11T08:42:31;3.70;99.90
6822;DHT22;3449;48.728;8.968;2023-03-11T08:44:59;3.80;99.90
6822;DHT22;3449;48.728;8.968;2023-03-11T08:47:26;3.90;99.90
6822;DHT22;3449;48.728;8.968;2023-03-11T08:49:53;4.00;99.90
6822;DHT22;3449;48.728;8.968;2023-03-11T08:52:20;4.10;99.90
6822;DHT22;3449;48.728;8.968;2023-03-11T08:54:47;3.90;99.90
6822;DHT22;3449;48.728;8.968;2023-03-11T08:57:14;4.10;99.90
6822;DHT22;3449;48.728;8.968;2023-03-11T08:59:40;4.20;99.90
6822;DHT22;3449;48.728;8.968;2023-03-11T09:02:10;4.30;99.90
6822;DHT22;3449;48.728;8.968;2023-03-11T09:04:37;4.50;99.90
6822;DHT22;3449;48.728;8.968;2023-03-11T09:07:04;4.60;99.90
6822;DHT22;3449;48.728;8.968;2023-03-11T09:09:31;4.60;99.90
6822;DHT22;3449;48.728;8.968;2023-03-11T09:11:58;4.60;99.90
6822;DHT22;3449;48.728;8.968;2023-03-11T09:14:25;4.60;99.90
6822;DHT22;3449;48.728;8.968;2023-03-11T09:16:52;4.50;99.90
6822;DHT22;3449;48.728;8.968;2023-03-11T09:19:20;4.50;99.90
6822;DHT22;3449;48.728;8.968;2023-03-11T09:21:47;4.40;99.90
6822;DHT22;3449;48.728;8.968;2023-03-11T09:24:14;4.40;99.90
6822;DHT22;3449;48.728;8.968;2023-03-11T09:26:40;4.40;99.90
6822;DHT22;3449;48.728;8.968;2023-03-11T09:29:07;4.60;99.90
6822;DHT22;3449;48.728;8.968;2023-03-11T09:31:34;4.60;99.90
6822;DHT22;3449;48.728;8.968;2023-03-11T09:34:03;4.80;99.90
6822;DHT22;3449;48.728;8.968;2023-03-11T09:36:32;4.70;99.90
6822;DHT22;3449;48.728;8.968;2023-03-11T09:39:00;4.50;99.90
6822;DHT22;3449;48.728;8.968;2023-03-11T09:41:33;4.80;99.90
6822;DHT22;3449;48.728;8.968;2023-03-11T09:44:12;4.70;99.90
6822;DHT22;3449;48.728;8.968;2023-03-11T09:47:03;4.40;99.90
6822;DHT22;3449;48.728;8.968;2023-03-11T09:49:45;4.00;99.90
6822;DHT22;3449;48.728;8.968;2023-03-11T09:52:19;3.80;99.90
6822;DHT22;3449;48.728;8.968;2023-03-11T09:54:52;3.60;99.90
6822;DHT22;3449;48.728;8.968;2023-03-11T09:57:23;3.90;99.90
6822;DHT22;3449;48.728;8.968;2023-03-11T09:59:51;3.70;99.90
6822;DHT22;3449;48.728;8.968;2023-03-11T10:02:20;3.90;99.90
6822;DHT22;3449;48.728;8.968;2023-03-11T10:04:52;4.20;99.90
6822;DHT22;3449;48.728;8.968;2023-03-11T10:07:26;4.60;99.90
6822;DHT22;3449;48.728;8.968;2023-03-11T10:09:55;5.30;99.90
6822;DHT22;3449;48.728;8.968;2023-03-11T10:12:35;5.60;99.90
6822;DHT22;3449;48.728;8.968;2023-03-11T10:15:17;6.30;99.90
6822;DHT22;3449;48.728;8.968;2023-03-11T10:17:56;6.30;99.90
6822;DHT22;3449;48.728;8.968;2023-03-11T10:20:29;6.20;99.90
6822;DHT22;3449;48.728;8.968;2023-03-11T10:23:12;5.90;99.90
6822;DHT22;3449;48.728;8.968;2023-03-11T10:25:48;5.50;99.90
6822;DHT22;3449;48.728;8.968;2023-03-11T10:28:21;5.20;99.90
6822;DHT22;3449;48.728;8.968;2023-03-11T10:30:52;4.80;99.90
6822;DHT22;3449;48.728;8.968;2023-03-11T10:33:25;4.50;99.90
6822;DHT22;3449;48.728;8.968;2023-03-11T10:35:57;4.40;99.90
6822;DHT22;3449;48.728;8.968;2023-03-11T10:38:29;4.00;99.90
6822;DHT22;3449;48.728;8.968;2023-03-11T10:40:58;4.10;99.90
6822;DHT22;3449;48.728;8.968;2023-03-11T10:43:30;4.60;99.90
6822;DHT22;3449;48.728;8.968;2023-03-11T10:45:59;5.40;99.90
6822;DHT22;3449;48.728;8.968;2023-03-11T10:48:29;6.10;99.90
6822;DHT22;3449;48.728;8.968;2023-03-11T10:51:01;6.40;99.90
6822;DHT22;3449;48.728;8.968;2023-03-11T10:53:29;6.20;99.90
6822;DHT22;3449;48.728;8.968;2023-03-11T10:55:58;6.60;99.90
6822;DHT22;3449;48.728;8.968;2023-03-11T10:58:26;7.10;99.90
6822;DHT22;3449;48.728;8.968;2023-03-11T11:01:12;7.00;99.90
6822;DHT22;3449;48.728;8.968;2023-03-11T11:03:40;7.20;99.90
6822;DHT22;3449;48.728;8.968;2023-03-11T11:06:18;7.50;99.90
6822;DHT22;3449;48.728;8.968;2023-03-11T11:08:47;7.00;99.90
6822;DHT22;3449;48.728;8.968;2023-03-11T11:11:20;6.90;99.90
6822;DHT22;3449;48.728;8.968;2023-03-11T11:13:56;7.50;99.90
6822;DHT22;3449;48.728;8.968;2023-03-11T11:16:23;7.80;99.90
6822;DHT22;3449;48.728;8.968;2023-03-11T11:18:54;8.00;99.90
6822;DHT22;3449;48.728;8.968;2023-03-11T11:21:30;8.50;99.90
6822;DHT22;3449;48.728;8.968;2023-03-11T11:24:09;8.40;99.90
6822;DHT22;3449;48.728;8.968;2023-03-11T11:26:37;8.90;99.90
6822;DHT22;3449;48.728;8.968;2023-03-11T11:29:06;9.30;99.90
6822;DHT22;3449;48.728;8.968;2023-03-11T11:31:34;9.10;99.90
6822;DHT22;3449;48.728;8.968;2023-03-11T11:34:01;8.20;99.90
6822;DHT22;3449;48.728;8.968;2023-03-11T11:36:34;8.00;99.90
6822;DHT22;3449;48.728;8.968;2023-03-11T11:39:05;8.40;99.90
6822;DHT22;3449;48.728;8.968;2023-03-11T11:41:36;8.50;99.90
6822;DHT22;3449;48.728;8.968;2023-03-11T11:44:05;8.30;99.90
6822;DHT22;3449;48.728;8.968;2023-03-11T11:46:36;8.30;99.90
6822;DHT22;3449;48.728;8.968;2023-03-11T11:49:10;8.60;99.90
6822;DHT22;3449;48.728;8.968;2023-03-11T11:51:46;8.50;99.90
6822;DHT22;3449;48.728;8.968;2023-03-11T11:54:19;8.50;99.90
6822;DHT22;3449;48.728;8.968;2023-03-11T11:56:48;8.40;99.90
6822;DHT22;3449;48.728;8.968;2023-03-11T11:59:17;8.60;99.90
6822;DHT22;3449;48.728;8.968;2023-03-11T12:01:54;8.40;99.90
6822;DHT22;3449;48.728;8.968;2023-03-11T12:07:28;8.60;99.90
6822;DHT22;3449;48.728;8.968;2023-03-11T12:10:08;8.90;99.90
6822;DHT22;3449;48.728;8.968;2023-03-11T12:12:41;8.80;99.90
6822;DHT22;3449;48.728;8.968;2023-03-11T12:15:15;9.40;99.90
6822;DHT22;3449;48.728;8.968;2023-03-11T12:17:45;9.20;99.90
6822;DHT22;3449;48.728;8.968;2023-03-11T12:20:16;9.10;99.90
6822;DHT22;3449;48.728;8.968;2023-03-11T12:23:08;8.60;99.90
6822;DHT22;3449;48.728;8.968;2023-03-11T12:25:59;8.30;99.90
6822;DHT22;3449;48.728;8.968;2023-03-11T12:28:38;8.50;99.90
6822;DHT22;3449;48.728;8.968;2023-03-11T12:31:08;8.50;99.90
6822;DHT22;3449;48.728;8.968;2023-03-11T12:33:38;9.30;99.90
6822;DHT22;3449;48.728;8.968;2023-03-11T12:36:07;9.20;99.90
6822;DHT22;3449;48.728;8.968;2023-03-11T12:38:46;9.60;99.90
6822;DHT22;3449;48.728;8.968;2023-03-11T12:41:28;9.50;99.90
6822;DHT22;3449;48.728;8.968;2023-03-11T12:44:00;9.70;99.90
6822;DHT22;3449;48.728;8.968;2023-03-11T12:46:59;9.90;99.90
6822;DHT22;3449;48.728;8.968;2023-03-11T12:49:27;10.00;99.90
6822;DHT22;3449;48.728;8.968;2023-03-11T12:52:19;10.00;99.90
6822;DHT22;3449;48.728;8.968;2023-03-11T12:54:47;9.20;99.90
6822;DHT22;3449;48.728;8.968;2023-03-11T12:57:30;9.20;99.90
6822;DHT22;3449;48.728;8.968;2023-03-11T13:00:20;9.50;99.90
6822;DHT22;3449;48.728;8.968;2023-03-11T13:03:07;9.40;99.90
6822;DHT22;3449;48.728;8.968;2023-03-11T13:05:49;9.30;99.90
6822;DHT22;3449;48.728;8.968;2023-03-11T13:08:20;9.20;99.90
6822;DHT22;3449;48.728;8.968;2023-03-11T13:10:49;9.30;99.90
6822;DHT22;3449;48.728;8.968;2023-03-11T13:13:30;9.30;99.90
6822;DHT22;3449;48.728;8.968;2023-03-11T13:16:17;9.40;99.90
6822;DHT22;3449;48.728;8.968;2023-03-11T13:18:46;9.70;99.90
6822;DHT22;3449;48.728;8.968;2023-03-11T13:21:35;9.50;99.90
6822;DHT22;3449;48.728;8.968;2023-03-11T13:24:39;9.90;99.90
6822;DHT22;3449;48.728;8.968;2023-03-11T13:27:10;9.80;99.90
6822;DHT22;3449;48.728;8.968;2023-03-11T13:29:48;9.90;99.90
6822;DHT22;3449;48.728;8.968;2023-03-11T13:32:27;9.60;99.90
6822;DHT22;3449;48.728;8.968;2023-03-11T13:35:09;9.10;99.90
6822;DHT22;3449;48.728;8.968;2023-03-11T13:37:43;8.00;99.90
6822;DHT22;3449;48.728;8.968;2023-03-11T13:40:25;8.40;99.90
6822;DHT22;3449;48.728;8.968;2023-03-11T13:42:57;9.20;99.90
6822;DHT22;3449;48.728;8.968;2023-03-11T13:45:30;8.70;99.90
6822;DHT22;3449;48.728;8.968;2023-03-11T13:48:02;8.10;99.90
6822;DHT22;3449;48.728;8.968;2023-03-11T13:50:33;8.30;99.90
6822;DHT22;3449;48.728;8.968;2023-03-11T13:53:05;9.20;99.90
6822;DHT22;3449;48.728;8.968;2023-03-11T13:55:34;9.80;99.90
6822;DHT22;3449;48.728;8.968;2023-03-11T13:58:13;9.90;99.90
6822;DHT22;3449;48.728;8.968;2023-03-11T14:00:47;9.70;99.90
6822;DHT22;3449;48.728;8.968;2023-03-11T14:03:16;9.00;99.90
6822;DHT22;3449;48.728;8.968;2023-03-11T14:05:47;8.50;99.90
6822;DHT22;3449;48.728;8.968;2023-03-11T14:08:19;8.60;99.90
6822;DHT22;3449;48.728;8.968;2023-03-11T14:10:51;8.90;99.90
6822;DHT22;3449;48.728;8.968;2023-03-11T14:13:20;8.90;99.90
6822;DHT22;3449;48.728;8.968;2023-03-11T14:15:59;8.70;99.90
6822;DHT22;3449;48.728;8.968;2023-03-11T14:18:33;8.70;99.90
6822;DHT22;3449;48.728;8.968;2023-03-11T14:21:11;8.90;99.90
6822;DHT22;3449;48.728;8.968;2023-03-11T14:23:40;8.60;99.90
6822;DHT22;3449;48.728;8.968;2023-03-11T14:26:12;9.00;99.90
6822;DHT22;3449;48.728;8.968;2023-03-11T14:28:42;9.60;99.90
6822;DHT22;3449;48.728;8.968;2023-03-11T14:31:22;9.70;99.90
6822;DHT22;3449;48.728;8.968;2023-03-11T14:33:57;9.60;99.90
6822;DHT22;3449;48.728;8.968;2023-03-11T14:36:29;9.40;99.90
6822;DHT22;3449;48.728;8.968;2023-03-11T14:38:56;9.40;99.90
6822;DHT22;3449;48.728;8.968;2023-03-11T14:41:22;9.10;99.90
6822;DHT22;3449;48.728;8.968;2023-03-11T14:43:52;8.80;99.90
6822;DHT22;3449;48.728;8.968;2023-03-11T14:46:23;8.70;99.90
6822;DHT22;3449;48.728;8.968;2023-03-11T14:48:52;8.90;99.90
6822;DHT22;3449;48.728;8.968;2023-03-11T14:51:24;8.90;99.90
6822;DHT22;3449;48.728;8.968;2023-03-11T14:53:57;8.90;99.90
6822;DHT22;3449;48.728;8.968;2023-03-11T14:56:29;9.00;99.90
6822;DHT22;3449;48.728;8.968;2023-03-11T14:59:00;8.90;99.90
6822;DHT22;3449;48.728;8.968;2023-03-11T15:01:34;8.70;99.90
6822;DHT22;3449;48.728;8.968;2023-03-11T15:04:07;8.00;99.90
6822;DHT22;3449;48.728;8.968;2023-03-11T15:06:38;7.70;99.90
6822;DHT22;3449;48.728;8.968;2023-03-11T15:09:07;7.60;99.90
6822;DHT22;3449;48.728;8.968;2023-03-11T15:11:44;7.50;99.90
6822;DHT22;3449;48.728;8.968;2023-03-11T15:14:19;7.50;99.90
6822;DHT22;3449;48.728;8.968;2023-03-11T15:16:48;7.40;99.90
6822;DHT22;3449;48.728;8.968;2023-03-11T15:19:28;7.40;99.90
6822;DHT22;3449;48.728;8.968;2023-03-11T15:21:57;7.10;99.90
6822;DHT22;3449;48.728;8.968;2023-03-11T15:24:26;7.00;99.90
6822;DHT22;3449;48.728;8.968;2023-03-11T15:26:55;7.00;99.90
6822;DHT22;3449;48.728;8.968;2023-03-11T15:29:24;6.90;99.90
6822;DHT22;3449;48.728;8.968;2023-03-11T15:31:53;6.80;99.90
6822;DHT22;3449;48.728;8.968;2023-03-11T15:34:24;6.70;99.90
6822;DHT22;3449;48.728;8.968;2023-03-11T15:36:57;6.60;99.90
6822;DHT22;3449;48.728;8.968;2023-03-11T15:39:27;6.50;99.90
6822;DHT22;3449;48.728;8.968;2023-03-11T15:42:12;6.40;99.90
6822;DHT22;3449;48.728;8.968;2023-03-11T15:44:41;6.30;99.90
6822;DHT22;3449;48.728;8.968;2023-03-11T15:47:12;6.20;99.90
6822;DHT22;3449;48.728;8.968;2023-03-11T15:49:39;6.10;99.90
6822;DHT22;3449;48.728;8.968;2023-03-11T15:52:07;6.00;99.90
6822;DHT22;3449;48.728;8.968;2023-03-11T15:54:34;5.80;99.90
6822;DHT22;3449;48.728;8.968;2023-03-11T15:57:04;5.70;99.90
6822;DHT22;3449;48.728;8.968;2023-03-11T15:59:32;5.50;99.90
6822;DHT22;3449;48.728;8.968;2023-03-11T16:02:00;5.40;99.90
6822;DHT22;3449;48.728;8.968;2023-03-11T16:04:28;5.30;99.90
6822;DHT22;3449;48.728;8.968;2023-03-11T16:06:55;5.20;99.90
6822;DHT22;3449;48.728;8.968;2023-03-11T16:09:21;5.20;99.90
6822;DHT22;3449;48.728;8.968;2023-03-11T16:11:49;5.10;99.90
6822;DHT22;3449;48.728;8.968;2023-03-11T16:14:18;5.00;99.90
6822;DHT22;3449;48.728;8.968;2023-03-11T16:16:46;4.90;99.90
6822;DHT22;3449;48.728;8.968;2023-03-11T16:19:13;4.70;99.90
6822;DHT22;3449;48.728;8.968;2023-03-11T16:21:43;4.60;99.90
6822;DHT22;3449;48.728;8.968;2023-03-11T16:24:17;4.60;99.90
6822;DHT22;3449;48.728;8.968;2023-03-11T16:26:44;4.50;99.90
6822;DHT22;3449;48.728;8.968;2023-03-11T16:29:11;4.60;99.90
6822;DHT22;3449;48.728;8.968;2023-03-11T16:31:39;4.70;99.90
6822;DHT22;3449;48.728;8.968;2023-03-11T16:34:06;4.70;99.90
6822;DHT22;3449;48.728;8.968;2023-03-11T16:36:34;4.60;99.90